Terminal Aerodrome Forecast
Issued by NWS

Home | Current Version | Previous Version | Text Only | Print | Product List | Glossary On
Versions: 1 2 3 4 5 6 7 8 9 10 11 12 13 14 15 16 17 18 19 20 21 22
000
FTUS41 KAKQ 280500
TAFPHF
TAF
KPHF 280530Z 2806/2906 31007KT P6SM SCT070
     FM281400 33010G16KT P6SM FEW050
     FM282300 30002KT P6SM SCT200=

USA.gov is the U.S. government's official web portal to all federal, state and local government web resources and services.